Time;durP1;ratioP1;P1;durP2;ratioP2;P2;SDS_P1;SDS_P2;PMS_P1;PMS_P2;Temp;Humidity;BMP_temperature;BMP_pressure;BME280_temperature;BME280_humidity;BME280_pressure;Samples;Min_cycle;Max_cycle;Signal;HPM_P1;HPM_P2
2023/08/14 00:01:56;;;;;;;;;;;18.50;82.70;;;;;;4985028;28;19914;-80
2023/08/14 00:04:22;;;;;;;;;;;18.50;81.90;;;;;;4993029;28;19985;-80
2023/08/14 00:06:47;;;;;;;;;;;18.50;81.50;;;;;;4982627;28;19914;-79
2023/08/14 00:09:13;;;;;;;;;;;18.50;81.60;;;;;;4985123;28;20385;-79
2023/08/14 00:11:38;;;;;;;;;;;18.50;82.00;;;;;;4990191;28;19918;-80
2023/08/14 00:14:04;;;;;;;;;;;18.50;81.90;;;;;;4987173;28;20364;-80
2023/08/14 00:16:29;;;;;;;;;;;18.40;81.60;;;;;;4999703;28;19909;-79
2023/08/14 00:18:55;;;;;;;;;;;18.30;81.80;;;;;;5002932;28;19913;-80
2023/08/14 00:21:20;;;;;;;;;;;18.30;82.20;;;;;;4994731;28;20384;-79
2023/08/14 00:23:46;;;;;;;;;;;18.30;82.80;;;;;;4991465;28;19913;-80
2023/08/14 00:26:14;;;;;;;;;;;18.40;82.40;;;;;;4995467;28;19914;-80
2023/08/14 00:28:40;;;;;;;;;;;18.40;82.00;;;;;;4991757;28;20272;-80
2023/08/14 00:31:05;;;;;;;;;;;18.40;82.10;;;;;;4998676;28;19918;-80
2023/08/14 00:33:31;;;;;;;;;;;18.40;81.90;;;;;;4996238;28;19922;-80
2023/08/14 00:35:56;;;;;;;;;;;18.50;81.90;;;;;;4997727;28;20004;-80
2023/08/14 00:38:21;;;;;;;;;;;18.40;82.30;;;;;;4997469;28;19921;-80
2023/08/14 00:40:47;;;;;;;;;;;18.50;82.20;;;;;;4998026;28;19976;-81
2023/08/14 00:43:12;;;;;;;;;;;18.30;82.90;;;;;;4996935;28;19910;-80
2023/08/14 00:45:38;;;;;;;;;;;18.40;83.10;;;;;;4989394;28;19914;-80
2023/08/14 00:48:04;;;;;;;;;;;18.40;83.10;;;;;;5012838;28;20309;-81
2023/08/14 00:50:30;;;;;;;;;;;18.30;83.40;;;;;;4990908;28;19918;-80
2023/08/14 00:52:57;;;;;;;;;;;18.30;83.00;;;;;;4995293;28;19914;-80
2023/08/14 00:55:26;;;;;;;;;;;18.40;82.00;;;;;;4992316;28;19968;-80
2023/08/14 00:57:52;;;;;;;;;;;18.20;82.90;;;;;;4998440;28;20380;-80
2023/08/14 01:00:17;;;;;;;;;;;18.10;83.40;;;;;;4997417;28;19910;-81
2023/08/14 01:02:43;;;;;;;;;;;18.00;84.10;;;;;;4994428;28;19914;-81
2023/08/14 01:05:09;;;;;;;;;;;18.10;83.70;;;;;;4994202;28;19917;-81
2023/08/14 01:07:34;;;;;;;;;;;18.20;82.90;;;;;;4993412;28;19914;-81
2023/08/14 01:10:02;;;;;;;;;;;18.20;82.60;;;;;;4989811;28;19941;-81
2023/08/14 01:12:38;;;;;;;;;;;18.10;83.00;;;;;;4994144;28;19961;-81
2023/08/14 01:15:08;;;;;;;;;;;18.10;83.80;;;;;;4995240;28;19918;-81
2023/08/14 01:17:35;;;;;;;;;;;18.10;83.80;;;;;;4993725;28;19925;-81
2023/08/14 01:20:03;;;;;;;;;;;18.00;84.10;;;;;;4994539;28;20599;-80
2023/08/14 01:22:40;;;;;;;;;;;18.10;83.60;;;;;;4992668;28;19956;-80
2023/08/14 01:25:21;;;;;;;;;;;18.10;83.50;;;;;;4994159;28;20349;-81
2023/08/14 01:27:47;;;;;;;;;;;18.20;83.40;;;;;;4991567;28;19968;-80
2023/08/14 01:30:12;;;;;;;;;;;18.20;82.70;;;;;;4984797;28;19917;-80
2023/08/14 01:32:38;;;;;;;;;;;18.20;82.50;;;;;;4996566;28;19940;-80
2023/08/14 01:35:04;;;;;;;;;;;18.20;82.20;;;;;;4982926;28;20008;-81
2023/08/14 01:37:35;;;;;;;;;;;18.10;82.70;;;;;;4993692;28;19968;-81
2023/08/14 01:40:20;;;;;;;;;;;18.10;82.90;;;;;;4994729;28;19917;-81
2023/08/14 01:42:48;;;;;;;;;;;18.00;83.30;;;;;;4982266;28;19921;-81
2023/08/14 01:45:16;;;;;;;;;;;18.00;83.30;;;;;;5000689;28;19910;-80
2023/08/14 01:47:43;;;;;;;;;;;18.00;83.00;;;;;;4993597;28;19995;-81
2023/08/14 01:50:09;;;;;;;;;;;18.00;83.20;;;;;;4995998;28;19922;-81
2023/08/14 01:52:35;;;;;;;;;;;18.00;83.40;;;;;;4995156;28;19913;-81
2023/08/14 01:55:00;;;;;;;;;;;18.00;83.30;;;;;;5000394;28;19913;-81
2023/08/14 01:57:27;;;;;;;;;;;18.00;83.20;;;;;;4997819;28;19928;-81
2023/08/14 01:59:52;;;;;;;;;;;17.80;84.10;;;;;;4994721;28;20012;-81
2023/08/14 02:02:17;;;;;;;;;;;17.70;84.50;;;;;;5001524;28;20698;-79
2023/08/14 02:04:43;;;;;;;;;;;17.80;84.00;;;;;;5015532;23;19934;-86
2023/08/14 02:07:11;;;;;;;;;;;17.70;84.30;;;;;;4989691;28;19920;-86
2023/08/14 02:09:37;;;;;;;;;;;17.80;83.80;;;;;;4986108;28;19914;-85
2023/08/14 02:12:03;;;;;;;;;;;17.80;83.40;;;;;;4994176;28;19916;-86
2023/08/14 02:14:29;;;;;;;;;;;17.80;83.50;;;;;;4983532;28;19910;-86
2023/08/14 02:16:54;;;;;;;;;;;17.70;84.10;;;;;;4973978;28;19964;-86
2023/08/14 02:19:20;;;;;;;;;;;17.60;84.50;;;;;;4981178;28;19925;-85
2023/08/14 02:21:45;;;;;;;;;;;17.50;84.70;;;;;;4981263;28;19922;-85
2023/08/14 02:24:11;;;;;;;;;;;17.50;84.90;;;;;;4976522;28;19914;-85
2023/08/14 02:26:36;;;;;;;;;;;17.50;84.80;;;;;;4983383;28;20406;-85
2023/08/14 02:29:03;;;;;;;;;;;17.60;84.90;;;;;;4981112;28;20418;-85
2023/08/14 02:31:28;;;;;;;;;;;17.60;84.30;;;;;;4979094;28;20443;-85
2023/08/14 02:33:58;;;;;;;;;;;17.60;83.70;;;;;;4977136;28;19918;-85
2023/08/14 02:36:23;;;;;;;;;;;17.50;84.10;;;;;;4976773;28;20411;-85
2023/08/14 02:38:48;;;;;;;;;;;17.50;84.40;;;;;;4975160;28;19918;-85
2023/08/14 02:41:14;;;;;;;;;;;17.50;84.30;;;;;;4977155;28;19918;-85
2023/08/14 02:43:39;;;;;;;;;;;17.50;83.60;;;;;;4975382;28;19950;-85
2023/08/14 02:46:05;;;;;;;;;;;17.40;83.80;;;;;;4974201;28;19914;-85
2023/08/14 02:48:30;;;;;;;;;;;17.20;84.50;;;;;;4974722;28;19938;-85
2023/08/14 02:50:56;;;;;;;;;;;17.20;84.90;;;;;;4978655;28;19916;-84
2023/08/14 02:53:21;;;;;;;;;;;17.20;85.30;;;;;;4974745;28;20345;-84
2023/08/14 02:55:51;;;;;;;;;;;17.10;85.40;;;;;;4975009;28;19968;-85
2023/08/14 02:58:17;;;;;;;;;;;17.10;85.20;;;;;;4973072;28;19930;-85
2023/08/14 03:00:44;;;;;;;;;;;17.20;84.80;;;;;;4969320;28;19910;-84
2023/08/14 03:03:09;;;;;;;;;;;17.20;84.30;;;;;;4973376;28;19910;-85
2023/08/14 03:05:34;;;;;;;;;;;17.10;84.40;;;;;;4981104;28;19918;-86
2023/08/14 03:08:00;;;;;;;;;;;17.00;85.30;;;;;;4970961;28;19914;-85
2023/08/14 03:10:25;;;;;;;;;;;17.00;85.50;;;;;;4980646;28;19917;-85
2023/08/14 03:12:51;;;;;;;;;;;17.00;85.80;;;;;;4972711;28;20008;-86
2023/08/14 03:15:16;;;;;;;;;;;16.90;85.80;;;;;;4972502;28;19996;-86
2023/08/14 03:17:42;;;;;;;;;;;16.90;85.80;;;;;;4972801;28;19989;-85
2023/08/14 03:20:09;;;;;;;;;;;17.10;84.60;;;;;;4978408;28;19914;-86
2023/08/14 03:22:35;;;;;;;;;;;17.10;84.40;;;;;;4983675;28;20028;-86
2023/08/14 03:25:00;;;;;;;;;;;17.10;84.60;;;;;;4977324;28;19957;-85
2023/08/14 03:27:26;;;;;;;;;;;17.10;84.30;;;;;;4973114;28;19917;-86
2023/08/14 03:29:51;;;;;;;;;;;17.00;84.90;;;;;;4991755;28;19993;-86
2023/08/14 03:32:17;;;;;;;;;;;17.00;84.60;;;;;;4972580;28;20364;-86
2023/08/14 03:34:42;;;;;;;;;;;17.10;84.10;;;;;;4971887;28;19969;-86
2023/08/14 03:37:08;;;;;;;;;;;17.10;83.50;;;;;;4971605;28;20012;-86
2023/08/14 03:39:33;;;;;;;;;;;17.00;83.90;;;;;;4976550;28;20061;-85
2023/08/14 03:41:58;;;;;;;;;;;16.80;84.20;;;;;;4980518;28;19914;-86
2023/08/14 03:44:24;;;;;;;;;;;16.80;84.40;;;;;;4972767;28;19914;-86
2023/08/14 03:46:49;;;;;;;;;;;16.80;84.60;;;;;;4971775;28;19930;-86
2023/08/14 03:49:15;;;;;;;;;;;16.90;84.60;;;;;;4973230;28;19915;-86
2023/08/14 03:51:40;;;;;;;;;;;16.70;85.10;;;;;;4973036;28;19910;-86
2023/08/14 03:54:06;;;;;;;;;;;16.60;85.70;;;;;;4971787;28;19910;-86
2023/08/14 03:56:31;;;;;;;;;;;16.70;85.60;;;;;;4972715;28;19910;-87
2023/08/14 03:58:57;;;;;;;;;;;16.80;84.70;;;;;;4970738;28;19918;-86
2023/08/14 04:01:22;;;;;;;;;;;16.60;85.50;;;;;;4971560;28;20032;-85
2023/08/14 04:03:48;;;;;;;;;;;16.50;85.70;;;;;;4972421;28;19917;-87
2023/08/14 04:06:13;;;;;;;;;;;16.60;85.80;;;;;;4972511;28;19925;-86
2023/08/14 04:08:39;;;;;;;;;;;16.50;85.90;;;;;;4974906;28;20380;-86
2023/08/14 04:11:04;;;;;;;;;;;16.50;86.00;;;;;;4981967;28;19914;-86
2023/08/14 04:13:30;;;;;;;;;;;16.50;86.50;;;;;;4971788;28;19918;-86
2023/08/14 04:16:03;;;;;;;;;;;16.60;86.10;;;;;;4972046;28;19921;-86
2023/08/14 04:18:29;;;;;;;;;;;16.70;85.60;;;;;;4974294;28;19922;-85
2023/08/14 04:20:54;;;;;;;;;;;16.60;86.00;;;;;;4978864;28;19937;-86
2023/08/14 04:23:20;;;;;;;;;;;16.50;86.10;;;;;;4971529;28;19922;-86
2023/08/14 04:25:46;;;;;;;;;;;16.50;86.00;;;;;;4971145;28;19915;-85
2023/08/14 04:28:11;;;;;;;;;;;16.60;86.20;;;;;;4975109;28;19926;-86
2023/08/14 04:30:36;;;;;;;;;;;16.60;86.00;;;;;;4973006;28;19948;-86
2023/08/14 04:33:02;;;;;;;;;;;16.60;86.20;;;;;;4972707;28;19922;-86
2023/08/14 04:35:27;;;;;;;;;;;16.70;86.30;;;;;;4974873;28;19910;-86
2023/08/14 04:37:53;;;;;;;;;;;16.80;85.70;;;;;;4977231;28;20442;-84
2023/08/14 04:40:18;;;;;;;;;;;16.70;85.50;;;;;;4977646;28;19914;-85
2023/08/14 04:42:44;;;;;;;;;;;16.60;85.90;;;;;;4977704;28;19914;-86
2023/08/14 04:45:09;;;;;;;;;;;16.60;86.10;;;;;;4977119;28;20300;-86
2023/08/14 04:47:35;;;;;;;;;;;16.60;86.10;;;;;;4979576;28;19914;-85
2023/08/14 04:50:00;;;;;;;;;;;16.50;86.30;;;;;;4971129;28;20368;-86
2023/08/14 04:52:26;;;;;;;;;;;16.60;86.60;;;;;;4978977;28;20434;-86
2023/08/14 04:54:51;;;;;;;;;;;16.60;86.40;;;;;;4977941;28;20437;-85
2023/08/14 04:57:17;;;;;;;;;;;16.60;86.20;;;;;;4972332;28;19914;-85
2023/08/14 04:59:42;;;;;;;;;;;16.60;86.00;;;;;;4976143;28;20527;-85
2023/08/14 05:02:08;;;;;;;;;;;16.80;85.60;;;;;;4979316;28;19914;-86
2023/08/14 05:04:33;;;;;;;;;;;16.70;86.20;;;;;;4975486;28;19965;-86
2023/08/14 05:06:58;;;;;;;;;;;16.70;86.30;;;;;;4973507;28;20307;-86
2023/08/14 05:09:24;;;;;;;;;;;16.70;86.60;;;;;;4974534;28;19921;-86
2023/08/14 05:11:49;;;;;;;;;;;16.80;86.70;;;;;;4983235;28;20288;-86
2023/08/14 05:14:18;;;;;;;;;;;16.90;86.50;;;;;;4973842;28;20442;-86
2023/08/14 05:16:47;;;;;;;;;;;16.90;86.60;;;;;;4974753;28;19914;-86
2023/08/14 05:19:12;;;;;;;;;;;16.90;86.70;;;;;;4972952;28;19973;-86
2023/08/14 05:21:38;;;;;;;;;;;16.90;86.80;;;;;;4976541;28;20017;-86
2023/08/14 05:24:03;;;;;;;;;;;17.00;86.90;;;;;;4980833;28;19945;-86
2023/08/14 05:26:29;;;;;;;;;;;17.00;86.60;;;;;;4973850;28;19914;-86
2023/08/14 05:28:54;;;;;;;;;;;17.00;87.10;;;;;;4975926;28;19945;-86
2023/08/14 05:31:19;;;;;;;;;;;17.00;86.90;;;;;;4974939;28;19922;-86
2023/08/14 05:33:45;;;;;;;;;;;17.00;86.90;;;;;;4974207;28;19914;-85
2023/08/14 05:36:11;;;;;;;;;;;17.00;87.00;;;;;;4968536;28;19996;-85
2023/08/14 05:38:36;;;;;;;;;;;17.10;87.00;;;;;;4970799;28;20045;-85
2023/08/14 05:41:01;;;;;;;;;;;17.10;86.70;;;;;;4971915;28;19914;-86
2023/08/14 05:43:27;;;;;;;;;;;17.20;87.00;;;;;;4973003;28;19921;-85
2023/08/14 05:45:52;;;;;;;;;;;17.30;87.00;;;;;;4976007;28;20384;-84
2023/08/14 05:48:18;;;;;;;;;;;17.50;86.70;;;;;;4973684;28;19918;-84
2023/08/14 05:50:43;;;;;;;;;;;17.60;86.70;;;;;;4975574;28;19914;-84
2023/08/14 05:53:09;;;;;;;;;;;17.60;86.80;;;;;;4973713;28;19969;-85
2023/08/14 05:55:35;;;;;;;;;;;17.60;86.90;;;;;;4973080;28;19914;-84
2023/08/14 05:58:02;;;;;;;;;;;17.80;87.00;;;;;;4973777;28;19922;-83
2023/08/14 06:00:28;;;;;;;;;;;17.90;86.70;;;;;;4972649;28;19950;-85
2023/08/14 06:02:53;;;;;;;;;;;18.00;86.50;;;;;;4980253;28;19969;-84
2023/08/14 06:05:19;;;;;;;;;;;18.10;86.10;;;;;;4971209;28;20005;-83
2023/08/14 06:07:47;;;;;;;;;;;18.30;85.20;;;;;;4974097;28;20009;-83
2023/08/14 06:10:12;;;;;;;;;;;18.30;84.50;;;;;;4974275;28;20032;-83
2023/08/14 06:12:38;;;;;;;;;;;18.50;83.80;;;;;;4977806;28;19945;-83
2023/08/14 06:15:03;;;;;;;;;;;18.50;83.60;;;;;;4975438;28;20372;-84
2023/08/14 06:17:29;;;;;;;;;;;18.60;83.80;;;;;;4973463;28;20297;-86
2023/08/14 06:19:54;;;;;;;;;;;18.60;84.20;;;;;;4973393;28;19925;-84
2023/08/14 06:22:20;;;;;;;;;;;18.80;84.10;;;;;;4973284;28;19921;-87
2023/08/14 06:24:46;;;;;;;;;;;18.90;83.80;;;;;;4971607;28;19918;-85
2023/08/14 06:27:11;;;;;;;;;;;19.00;83.50;;;;;;4963542;28;19921;-88
2023/08/14 06:29:37;;;;;;;;;;;19.10;82.60;;;;;;4967206;28;20009;-87
2023/08/14 06:32:03;;;;;;;;;;;19.10;82.70;;;;;;4974781;28;19954;-87
2023/08/14 06:34:28;;;;;;;;;;;19.10;82.80;;;;;;4974358;28;19918;-87
2023/08/14 06:36:54;;;;;;;;;;;19.10;82.60;;;;;;4971258;28;19918;-87
2023/08/14 06:39:19;;;;;;;;;;;19.20;82.30;;;;;;4972425;28;20016;-86
2023/08/14 06:41:45;;;;;;;;;;;19.20;82.40;;;;;;4974394;28;19922;-84
2023/08/14 06:44:10;;;;;;;;;;;19.30;82.50;;;;;;4975430;28;19914;-84
2023/08/14 06:46:36;;;;;;;;;;;19.40;82.60;;;;;;4977219;28;19921;-84
2023/08/14 06:49:01;;;;;;;;;;;19.50;82.20;;;;;;4979220;28;20045;-85
2023/08/14 06:51:26;;;;;;;;;;;19.60;81.70;;;;;;4976664;28;19918;-84
2023/08/14 06:53:52;;;;;;;;;;;19.60;81.60;;;;;;4977615;28;19910;-84
2023/08/14 06:56:17;;;;;;;;;;;19.80;80.60;;;;;;4977267;28;19915;-84
2023/08/14 06:58:43;;;;;;;;;;;20.00;80.50;;;;;;4978511;28;19957;-83
2023/08/14 07:01:09;;;;;;;;;;;20.10;79.50;;;;;;4979218;28;19910;-84
2023/08/14 07:03:34;;;;;;;;;;;20.10;79.80;;;;;;4978467;28;19914;-84
2023/08/14 07:05:59;;;;;;;;;;;20.20;79.90;;;;;;4977142;28;20347;-84
2023/08/14 07:08:25;;;;;;;;;;;20.20;79.80;;;;;;4975535;28;20001;-84
2023/08/14 07:10:50;;;;;;;;;;;20.20;79.80;;;;;;4977359;28;19957;-84
2023/08/14 07:13:16;;;;;;;;;;;20.20;79.80;;;;;;4978621;28;19922;-84
2023/08/14 07:15:41;;;;;;;;;;;20.30;80.10;;;;;;4974187;28;19980;-84
2023/08/14 07:18:08;;;;;;;;;;;20.30;78.90;;;;;;4974407;28;19914;-83
2023/08/14 07:20:33;;;;;;;;;;;20.30;78.80;;;;;;4976262;28;20241;-83
2023/08/14 07:22:59;;;;;;;;;;;20.40;78.50;;;;;;4976153;28;20016;-85
2023/08/14 07:25:24;;;;;;;;;;;20.50;78.50;;;;;;4972226;28;19950;-85
2023/08/14 07:27:50;;;;;;;;;;;20.50;77.60;;;;;;4973407;28;19921;-85
2023/08/14 07:30:15;;;;;;;;;;;20.60;77.80;;;;;;4966387;28;19988;-84
2023/08/14 07:32:41;;;;;;;;;;;20.80;77.60;;;;;;4977848;28;20158;-85
2023/08/14 07:35:06;;;;;;;;;;;20.90;76.70;;;;;;4980635;28;19949;-83
2023/08/14 07:37:32;;;;;;;;;;;21.10;76.30;;;;;;4979971;28;19970;-84
2023/08/14 07:39:57;;;;;;;;;;;21.10;76.20;;;;;;4980740;28;20300;-84
2023/08/14 07:42:23;;;;;;;;;;;21.10;75.90;;;;;;4980613;28;19910;-83
2023/08/14 07:44:48;;;;;;;;;;;21.10;75.90;;;;;;4985521;28;20663;-83
2023/08/14 07:47:14;;;;;;;;;;;21.10;75.50;;;;;;4982509;28;19985;-83
2023/08/14 07:49:39;;;;;;;;;;;21.10;75.70;;;;;;4980379;28;19981;-83
2023/08/14 07:52:05;;;;;;;;;;;21.10;76.30;;;;;;4985536;28;20020;-83
2023/08/14 07:54:31;;;;;;;;;;;21.10;76.80;;;;;;4978921;28;19910;-83
2023/08/14 07:56:56;;;;;;;;;;;21.10;77.10;;;;;;4981032;28;19910;-84
2023/08/14 07:59:22;;;;;;;;;;;21.10;77.40;;;;;;4977572;28;19914;-84
2023/08/14 08:01:48;;;;;;;;;;;21.10;76.80;;;;;;4976563;28;19980;-84
2023/08/14 08:04:13;;;;;;;;;;;21.00;77.80;;;;;;4974774;28;19914;-84
2023/08/14 08:06:39;;;;;;;;;;;21.00;78.00;;;;;;4976731;28;20004;-84
2023/08/14 08:09:04;;;;;;;;;;;21.10;76.20;;;;;;4974267;28;20013;-84
2023/08/14 08:11:30;;;;;;;;;;;21.10;75.90;;;;;;4974073;28;20359;-84
2023/08/14 08:13:55;;;;;;;;;;;21.20;76.10;;;;;;4975226;28;19933;-85
2023/08/14 08:16:21;;;;;;;;;;;21.30;73.50;;;;;;4974262;28;19914;-85
2023/08/14 08:18:46;;;;;;;;;;;21.30;72.50;;;;;;4973946;28;19981;-84
2023/08/14 08:21:12;;;;;;;;;;;21.40;72.80;;;;;;4974231;28;20037;-84
2023/08/14 08:23:37;;;;;;;;;;;21.40;73.10;;;;;;4974161;28;19914;-84
2023/08/14 08:26:03;;;;;;;;;;;21.50;73.80;;;;;;4971174;28;19914;-84
2023/08/14 08:28:28;;;;;;;;;;;21.50;74.00;;;;;;4973971;28;19968;-83
2023/08/14 08:30:54;;;;;;;;;;;21.50;74.10;;;;;;4975420;28;19914;-83
2023/08/14 08:33:19;;;;;;;;;;;21.60;73.70;;;;;;4982085;28;20295;-83
2023/08/14 08:35:45;;;;;;;;;;;22.00;71.50;;;;;;4978128;28;19918;-84
2023/08/14 08:38:10;;;;;;;;;;;22.00;71.80;;;;;;4979452;28;19918;-84
2023/08/14 08:40:36;;;;;;;;;;;22.10;72.10;;;;;;4978017;28;19937;-85
2023/08/14 08:43:02;;;;;;;;;;;22.00;72.50;;;;;;4979262;28;19910;-84
2023/08/14 08:45:32;;;;;;;;;;;22.00;68.90;;;;;;4977106;28;20005;-84
2023/08/14 08:48:00;;;;;;;;;;;21.70;70.00;;;;;;4985189;28;19914;-84
2023/08/14 08:50:26;;;;;;;;;;;21.50;71.40;;;;;;4978899;28;19921;-85
2023/08/14 08:52:51;;;;;;;;;;;21.40;70.90;;;;;;4977464;28;19910;-84
2023/08/14 08:55:17;;;;;;;;;;;21.30;70.90;;;;;;4976998;28;19914;-85
2023/08/14 08:57:42;;;;;;;;;;;21.30;69.60;;;;;;4974616;28;19922;-87
2023/08/14 09:00:08;;;;;;;;;;;21.30;69.60;;;;;;4975066;28;19910;-85
2023/08/14 09:02:34;;;;;;;;;;;21.30;69.20;;;;;;4984263;28;19918;-86
2023/08/14 09:05:00;;;;;;;;;;;21.30;69.60;;;;;;4974887;28;19926;-86
2023/08/14 09:07:26;;;;;;;;;;;21.40;70.00;;;;;;4984301;28;20280;-86
2023/08/14 09:09:51;;;;;;;;;;;21.50;69.30;;;;;;4982988;28;20016;-86
2023/08/14 09:12:17;;;;;;;;;;;21.40;69.30;;;;;;4975105;28;19946;-86
2023/08/14 09:14:43;;;;;;;;;;;21.50;68.40;;;;;;4982630;28;20315;-86
2023/08/14 09:17:10;;;;;;;;;;;21.70;66.40;;;;;;4983948;28;20454;-86
2023/08/14 09:19:37;;;;;;;;;;;21.60;64.50;;;;;;4968187;28;19914;-86
2023/08/14 09:22:02;;;;;;;;;;;21.60;63.80;;;;;;4976103;28;19911;-86
2023/08/14 09:24:31;;;;;;;;;;;21.60;64.80;;;;;;4976061;28;19917;-86
2023/08/14 09:26:57;;;;;;;;;;;21.60;66.60;;;;;;4982603;28;19988;-87
2023/08/14 09:29:22;;;;;;;;;;;21.70;66.20;;;;;;4976354;28;20376;-87
2023/08/14 09:31:48;;;;;;;;;;;21.80;66.70;;;;;;4974973;28;19941;-86
2023/08/14 09:34:17;;;;;;;;;;;21.90;63.80;;;;;;4975218;28;19910;-86
2023/08/14 09:36:43;;;;;;;;;;;21.90;63.70;;;;;;4974763;28;20281;-86
2023/08/14 09:39:08;;;;;;;;;;;22.00;63.90;;;;;;4976262;28;19914;-87
2023/08/14 09:41:35;;;;;;;;;;;22.00;64.10;;;;;;4976342;28;19915;-86
2023/08/14 09:44:00;;;;;;;;;;;22.40;63.20;;;;;;4980094;28;19910;-86
2023/08/14 09:46:28;;;;;;;;;;;22.60;60.80;;;;;;4976748;28;20004;-86
2023/08/14 09:48:53;;;;;;;;;;;22.70;60.40;;;;;;4974360;28;19910;-85
2023/08/14 09:51:19;;;;;;;;;;;22.60;61.90;;;;;;4974820;28;20343;-87
2023/08/14 09:53:52;;;;;;;;;;;22.70;60.60;;;;;;4983422;28;20013;-86
2023/08/14 09:56:18;;;;;;;;;;;22.70;60.80;;;;;;4974955;28;19917;-86
2023/08/14 09:58:44;;;;;;;;;;;22.90;60.40;;;;;;4978344;28;20010;-87
2023/08/14 10:01:14;;;;;;;;;;;23.00;60.20;;;;;;4979173;28;19940;-86
2023/08/14 10:03:43;;;;;;;;;;;23.00;60.30;;;;;;4976844;28;19979;-86
2023/08/14 10:06:09;;;;;;;;;;;23.20;60.70;;;;;;4976641;28;20276;-86
2023/08/14 10:08:36;;;;;;;;;;;23.20;59.50;;;;;;4982871;28;19914;-86
2023/08/14 10:11:02;;;;;;;;;;;23.20;61.20;;;;;;4974675;28;19918;-87
2023/08/14 10:13:28;;;;;;;;;;;23.10;62.00;;;;;;4975575;28;19919;-86
2023/08/14 10:15:55;;;;;;;;;;;23.10;60.00;;;;;;4976111;28;19914;-86
2023/08/14 10:18:22;;;;;;;;;;;23.00;60.50;;;;;;4976066;28;19921;-86
2023/08/14 10:20:48;;;;;;;;;;;23.00;62.90;;;;;;4973787;28;20348;-86
2023/08/14 10:23:14;;;;;;;;;;;23.30;60.50;;;;;;4975636;28;19910;-86
2023/08/14 10:25:41;;;;;;;;;;;23.10;61.30;;;;;;4975391;28;20435;-86
2023/08/14 10:28:09;;;;;;;;;;;23.20;61.40;;;;;;4974414;28;19916;-86
2023/08/14 10:30:35;;;;;;;;;;;23.30;62.00;;;;;;4974329;28;20391;-86
2023/08/14 10:33:02;;;;;;;;;;;23.50;61.90;;;;;;4975396;28;19910;-86
2023/08/14 10:35:28;;;;;;;;;;;23.50;62.40;;;;;;4973923;28;19911;-86
2023/08/14 10:37:53;;;;;;;;;;;23.50;61.90;;;;;;4975301;28;20018;-86
2023/08/14 10:40:23;;;;;;;;;;;23.60;62.70;;;;;;4976643;28;20387;-86
2023/08/14 10:42:53;;;;;;;;;;;23.50;62.60;;;;;;4977181;28;19968;-87
2023/08/14 10:45:21;;;;;;;;;;;23.50;63.30;;;;;;4976398;28;19917;-86
2023/08/14 10:47:46;;;;;;;;;;;23.60;63.90;;;;;;4974822;28;19914;-86
2023/08/14 10:50:15;;;;;;;;;;;23.60;63.50;;;;;;4975006;28;19965;-87
2023/08/14 10:52:45;;;;;;;;;;;23.80;63.60;;;;;;4976454;28;19917;-86
2023/08/14 10:55:17;;;;;;;;;;;23.90;61.30;;;;;;4973853;28;19910;-86
2023/08/14 10:57:44;;;;;;;;;;;23.80;62.20;;;;;;4974070;28;20577;-86
2023/08/14 11:00:23;;;;;;;;;;;23.60;61.50;;;;;;4972673;28;20016;-86
2023/08/14 11:02:50;;;;;;;;;;;23.50;61.80;;;;;;4976412;28;19910;-86
2023/08/14 11:05:16;;;;;;;;;;;23.30;62.90;;;;;;4976368;28;19922;-86
2023/08/14 11:07:54;;;;;;;;;;;23.20;64.00;;;;;;4977339;28;19932;-86
2023/08/14 11:10:20;;;;;;;;;;;23.40;62.70;;;;;;4976534;28;19910;-86
2023/08/14 11:12:45;;;;;;;;;;;23.40;62.50;;;;;;4975362;28;19917;-86
2023/08/14 11:15:11;;;;;;;;;;;23.60;61.30;;;;;;4973960;28;19914;-87
2023/08/14 11:17:37;;;;;;;;;;;23.50;62.10;;;;;;4973834;28;19917;-86
2023/08/14 11:20:02;;;;;;;;;;;23.50;62.90;;;;;;4974626;28;19914;-86
2023/08/14 11:22:28;;;;;;;;;;;23.50;64.10;;;;;;4977443;28;19910;-86
2023/08/14 11:24:53;;;;;;;;;;;23.60;63.50;;;;;;4974771;28;19914;-86
2023/08/14 11:27:19;;;;;;;;;;;23.60;63.50;;;;;;4975913;28;19910;-85
2023/08/14 11:29:48;;;;;;;;;;;23.70;63.40;;;;;;4977490;28;20001;-86
2023/08/14 11:32:14;;;;;;;;;;;24.00;62.80;;;;;;4982359;28;19914;-87
2023/08/14 11:34:39;;;;;;;;;;;24.10;60.20;;;;;;4982417;28;19926;-87
2023/08/14 11:37:05;;;;;;;;;;;24.40;59.80;;;;;;4978351;28;19914;-86
2023/08/14 11:39:30;;;;;;;;;;;24.50;59.60;;;;;;4984786;28;19973;-86
2023/08/14 11:41:56;;;;;;;;;;;24.60;59.00;;;;;;4977804;28;19913;-86
2023/08/14 11:44:21;;;;;;;;;;;24.70;58.50;;;;;;4974653;28;19953;-86
2023/08/14 11:46:48;;;;;;;;;;;24.80;58.30;;;;;;4973388;28;19942;-87
2023/08/14 11:49:14;;;;;;;;;;;24.80;57.20;;;;;;4972953;28;19929;-87
2023/08/14 11:51:40;;;;;;;;;;;25.00;57.20;;;;;;4972726;28;19910;-86
2023/08/14 11:54:06;;;;;;;;;;;25.10;58.60;;;;;;4972745;28;20117;-86
2023/08/14 11:56:32;;;;;;;;;;;25.20;57.20;;;;;;4973714;28;19911;-86
2023/08/14 11:58:58;;;;;;;;;;;25.50;56.60;;;;;;4974214;28;19921;-86
2023/08/14 12:01:23;;;;;;;;;;;25.70;56.30;;;;;;4975651;28;19917;-86
2023/08/14 12:03:50;;;;;;;;;;;25.70;56.70;;;;;;4978875;28;20644;-86
2023/08/14 12:06:16;;;;;;;;;;;25.80;56.30;;;;;;4986320;28;19918;-86
2023/08/14 12:08:42;;;;;;;;;;;25.80;55.50;;;;;;4974871;28;19910;-87
2023/08/14 12:11:07;;;;;;;;;;;25.70;55.90;;;;;;4972496;28;19918;-87
2023/08/14 12:13:36;;;;;;;;;;;25.70;57.90;;;;;;4982335;28;19917;-86
2023/08/14 12:16:05;;;;;;;;;;;25.80;57.30;;;;;;4973333;28;19910;-87
2023/08/14 12:18:30;;;;;;;;;;;26.00;57.50;;;;;;4972534;28;19921;-86
2023/08/14 12:20:56;;;;;;;;;;;26.20;55.90;;;;;;4972794;28;20316;-88
2023/08/14 12:23:22;;;;;;;;;;;26.40;55.70;;;;;;4974438;28;19933;-87
2023/08/14 12:25:48;;;;;;;;;;;26.50;56.70;;;;;;4973873;28;19941;-87
2023/08/14 12:28:14;;;;;;;;;;;26.50;55.60;;;;;;4973003;28;19914;-87
2023/08/14 12:30:39;;;;;;;;;;;26.50;55.70;;;;;;4990194;28;19964;-86
2023/08/14 12:33:05;;;;;;;;;;;26.40;55.90;;;;;;4973110;28;19922;-86
2023/08/14 12:35:30;;;;;;;;;;;26.50;56.00;;;;;;4973434;28;19914;-87
2023/08/14 12:37:56;;;;;;;;;;;26.40;56.30;;;;;;4979550;28;19938;-86
2023/08/14 12:40:21;;;;;;;;;;;26.30;57.20;;;;;;4966548;28;19993;-87
2023/08/14 12:42:47;;;;;;;;;;;26.20;56.40;;;;;;4972732;28;19960;-86
2023/08/14 12:45:12;;;;;;;;;;;26.10;58.40;;;;;;4973397;28;19918;-86
2023/08/14 12:47:37;;;;;;;;;;;26.00;58.40;;;;;;4977454;28;20350;-87
2023/08/14 12:50:03;;;;;;;;;;;25.90;58.60;;;;;;4976727;28;19917;-87
2023/08/14 12:52:29;;;;;;;;;;;25.90;57.90;;;;;;4983867;28;19917;-86
2023/08/14 12:54:54;;;;;;;;;;;25.80;59.40;;;;;;4975463;28;19948;-87
2023/08/14 12:57:25;;;;;;;;;;;26.00;60.20;;;;;;4978210;28;19895;-86
2023/08/14 12:59:50;;;;;;;;;;;26.00;59.30;;;;;;4987275;28;20383;-86
2023/08/14 13:02:16;;;;;;;;;;;26.00;59.90;;;;;;4984712;28;19917;-86
2023/08/14 13:04:44;;;;;;;;;;;26.10;60.10;;;;;;4974666;28;20005;-87
2023/08/14 13:07:15;;;;;;;;;;;26.10;59.70;;;;;;4974852;28;19910;-86
2023/08/14 13:09:41;;;;;;;;;;;26.10;58.90;;;;;;4971842;28;19910;-86
2023/08/14 13:12:06;;;;;;;;;;;26.30;59.00;;;;;;4967328;28;19917;-87
2023/08/14 13:14:32;;;;;;;;;;;26.30;60.00;;;;;;4982446;28;19916;-87
2023/08/14 13:16:57;;;;;;;;;;;26.40;59.30;;;;;;4980103;28;19914;-87
2023/08/14 13:19:23;;;;;;;;;;;26.50;59.50;;;;;;4972723;28;20511;-87
2023/08/14 13:21:48;;;;;;;;;;;26.60;58.40;;;;;;4981732;28;19910;-86
2023/08/14 13:24:14;;;;;;;;;;;26.70;58.10;;;;;;4981859;28;19945;-86
2023/08/14 13:26:39;;;;;;;;;;;26.80;59.80;;;;;;4985966;28;19909;-87
2023/08/14 13:29:06;;;;;;;;;;;26.80;60.90;;;;;;4982349;28;19980;-87
2023/08/14 13:31:32;;;;;;;;;;;26.70;60.40;;;;;;4975292;28;20360;-85
2023/08/14 13:33:57;;;;;;;;;;;26.80;60.80;;;;;;4981393;28;19921;-86
2023/08/14 13:36:23;;;;;;;;;;;26.90;59.70;;;;;;4979330;28;19914;-87
2023/08/14 13:38:48;;;;;;;;;;;27.00;59.70;;;;;;4974767;28;20012;-86
2023/08/14 13:41:14;;;;;;;;;;;27.00;61.40;;;;;;4968099;28;19965;-86
2023/08/14 13:43:39;;;;;;;;;;;26.90;59.70;;;;;;4983660;28;19911;-86
2023/08/14 13:46:05;;;;;;;;;;;26.60;61.00;;;;;;4975718;28;19973;-86
2023/08/14 13:48:30;;;;;;;;;;;26.60;61.60;;;;;;4976595;28;19922;-85
2023/08/14 13:50:56;;;;;;;;;;;26.50;60.80;;;;;;4972878;28;19997;-89
2023/08/14 13:53:21;;;;;;;;;;;26.40;60.90;;;;;;4984711;28;19941;-86
2023/08/14 13:55:47;;;;;;;;;;;26.40;60.60;;;;;;4989412;28;20332;-83
2023/08/14 13:58:12;;;;;;;;;;;26.20;61.90;;;;;;4981031;28;20269;-88
2023/08/14 14:00:38;;;;;;;;;;;26.40;61.60;;;;;;4984974;28;19969;-87
2023/08/14 14:03:03;;;;;;;;;;;26.30;62.20;;;;;;4978757;28;20017;-88
2023/08/14 14:05:29;;;;;;;;;;;26.10;63.00;;;;;;4977819;28;19925;-87
2023/08/14 14:07:57;;;;;;;;;;;26.10;63.00;;;;;;4985750;28;19949;-90
2023/08/14 14:10:23;;;;;;;;;;;26.10;62.70;;;;;;4977543;28;19910;-87